Time;durP1;ratioP1;P1;durP2;ratioP2;P2;SDS_P1;SDS_P2;PMS_P1;PMS_P2;Temp;Humidity;BMP_temperature;BMP_pressure;BME280_temperature;BME280_humidity;BME280_pressure;Samples;Min_cycle;Max_cycle;Signal;HPM_P1;HPM_P2
2022/10/09 00:00:43;;;;;;;10.33;8.87;;;;;;;13.68;79.71;95237.75;5115609;28;20496;-77
2022/10/09 00:03:10;;;;;;;11.30;9.67;;;;;;;13.68;79.67;95237.75;5116113;28;20854;-77
2022/10/09 00:05:38;;;;;;;12.00;8.00;;;;;;;13.67;79.64;95230.81;5115594;28;20446;-77
2022/10/09 00:08:05;;;;;;;15.43;8.60;;;;;;;13.66;79.55;95239.69;5115524;28;20534;-77
2022/10/09 00:10:32;;;;;;;13.20;9.37;;;;;;;13.59;79.93;95239.41;5079407;28;20970;-77
2022/10/09 00:12:58;;;;;;;10.27;8.87;;;;;;;13.56;80.30;95237.03;5096002;28;20477;-77
2022/10/09 00:15:27;;;;;;;8.43;7.63;;;;;;;13.47;80.78;95237.88;5115256;28;20439;-77
2022/10/09 00:17:53;;;;;;;7.80;7.00;;;;;;;13.45;80.69;95229.28;5062508;28;20427;-77
2022/10/09 00:20:20;;;;;;;20.70;8.53;;;;;;;13.36;81.22;95219.59;5115115;28;20455;-77
2022/10/09 00:22:47;;;;;;;8.23;7.43;;;;;;;13.32;81.90;95220.84;5115263;28;20443;-77
2022/10/09 00:25:14;;;;;;;9.63;7.93;;;;;;;13.25;81.71;95228.44;5114933;28;20492;-77
2022/10/09 00:27:40;;;;;;;10.87;8.33;;;;;;;13.25;81.48;95223.16;5115025;28;20439;-78
2022/10/09 00:30:08;;;;;;;7.70;6.87;;;;;;;13.23;81.43;95211.94;5114939;28;20447;-77
2022/10/09 00:32:37;;;;;;;11.20;8.03;;;;;;;13.23;81.06;95219.00;5115457;28;20485;-78
2022/10/09 00:35:04;;;;;;;8.43;7.50;;;;;;;13.20;81.08;95219.28;5078751;28;20493;-77
2022/10/09 00:37:31;;;;;;;11.10;7.20;;;;;;;13.14;81.66;95211.91;5079323;28;20451;-77
2022/10/09 00:39:57;;;;;;;7.97;7.17;;;;;;;13.11;81.66;95218.28;5114782;28;20443;-78
2022/10/09 00:42:25;;;;;;;8.07;6.77;;;;;;;13.05;81.71;95208.31;5114469;28;20446;-77
2022/10/09 00:44:56;;;;;;;10.07;7.57;;;;;;;13.05;82.25;95207.47;5114950;28;20441;-78
2022/10/09 00:47:29;;;;;;;8.27;7.47;;;;;;;12.96;82.05;95198.56;5114821;28;20453;-77
2022/10/09 00:50:03;;;;;;;8.13;7.33;;;;;;;12.95;82.43;95192.47;5114611;28;20443;-77
2022/10/09 00:52:31;;;;;;;8.60;7.67;;;;;;;12.96;81.92;95199.41;5114840;28;20502;-77
2022/10/09 00:55:01;;;;;;;9.50;7.97;;;;;;;12.94;82.36;95201.34;5115066;28;20526;-77
2022/10/09 00:57:28;;;;;;;9.47;7.27;;;;;;;12.90;82.59;95197.31;5114340;28;20511;-78
2022/10/09 00:59:55;;;;;;;8.77;7.20;;;;;;;12.90;82.45;95202.59;5114365;28;20969;-77
2022/10/09 01:02:22;;;;;;;8.03;7.20;;;;;;;12.86;82.42;95200.38;5061990;28;20813;-77
2022/10/09 01:04:49;;;;;;;8.87;7.00;;;;;;;12.84;82.65;95194.41;5114458;28;20439;-77
2022/10/09 01:07:28;;;;;;;7.47;6.40;;;;;;;12.82;82.58;95191.06;5114089;28;20470;-77
2022/10/09 01:10:00;;;;;;;8.90;7.07;;;;;;;12.81;82.74;95189.41;5114825;28;20531;-78
2022/10/09 01:12:37;;;;;;;9.30;6.77;;;;;;;12.81;82.81;95186.78;5114090;28;20560;-78
2022/10/09 01:15:12;;;;;;;9.07;6.53;;;;;;;12.79;82.20;95191.34;5114162;28;20492;-77
2022/10/09 01:17:42;;;;;;;9.13;6.30;;;;;;;12.76;82.24;95183.72;5114263;28;20443;-78
2022/10/09 01:20:44;;;;;;;9.30;7.20;;;;;;;12.75;81.94;95189.97;5113963;28;20454;-77
2022/10/09 01:23:41;;;;;;;7.90;6.70;;;;;;;12.68;82.38;95195.75;5031134;28;20480;-77
2022/10/09 01:26:26;;;;;;;7.67;6.70;;;;;;;12.68;82.62;95194.91;5031276;28;20866;-78
2022/10/09 01:28:59;;;;;;;8.27;7.00;;;;;;;12.63;82.72;95197.97;5031199;28;20449;-77
2022/10/09 01:31:30;;;;;;;11.03;8.03;;;;;;;12.64;82.77;95198.78;5031232;28;20809;-77
2022/10/09 01:33:59;;;;;;;7.67;6.87;;;;;;;12.63;83.02;95202.38;5031034;28;20454;-78
2022/10/09 01:36:28;;;;;;;7.10;6.50;;;;;;;12.59;83.19;95201.84;5030945;28;20453;-77
2022/10/09 01:38:57;;;;;;;9.70;6.63;;;;;;;12.58;82.85;95197.53;5031041;28;20455;-77
2022/10/09 01:41:25;;;;;;;9.93;7.37;;;;;;;12.63;83.42;95202.38;5031004;28;20496;-77
2022/10/09 01:43:51;;;;;;;10.00;7.13;;;;;;;12.64;82.65;95198.78;5030887;28;20450;-77
2022/10/09 01:46:23;;;;;;;11.30;7.60;;;;;;;12.64;82.90;95199.63;5030800;28;20449;-78
2022/10/09 01:49:05;;;;;;;11.67;7.90;;;;;;;12.65;83.06;95198.66;4981647;28;20443;-78
2022/10/09 01:51:38;;;;;;;16.00;9.20;;;;;;;12.68;83.54;95200.19;5030324;28;20484;-77
2022/10/09 01:54:09;;;;;;;10.70;8.57;;;;;;;12.68;83.08;95194.91;5029731;28;20952;-77
2022/10/09 01:56:39;;;;;;;9.10;6.63;;;;;;;12.70;83.09;95190.34;5030660;28;20442;-77
2022/10/09 01:59:12;;;;;;;9.97;7.40;;;;;;;12.73;82.59;95202.44;5042868;28;20438;-77
2022/10/09 02:01:42;;;;;;;10.30;7.73;;;;;;;12.71;82.25;95199.91;5072723;28;20646;-77
2022/10/09 02:04:13;;;;;;;9.20;7.70;;;;;;;12.72;82.04;95209.47;5072617;28;21039;-77
2022/10/09 02:06:44;;;;;;;9.97;7.43;;;;;;;12.72;82.36;95198.94;5072602;28;20448;-77
2022/10/09 02:09:14;;;;;;;7.47;6.77;;;;;;;12.74;82.46;95217.25;5072723;28;20440;-76
2022/10/09 02:11:44;;;;;;;10.63;8.10;;;;;;;12.79;81.91;95215.88;5036890;28;20445;-77
2022/10/09 02:14:11;;;;;;;14.47;9.63;;;;;;;12.81;82.11;95216.56;5072814;28;20807;-77
2022/10/09 02:16:43;;;;;;;10.53;7.23;;;;;;;12.80;81.37;95220.19;5072684;28;20441;-78
2022/10/09 02:19:15;;;;;;;8.67;7.87;;;;;;;12.75;81.80;95217.13;5072336;28;20449;-77
2022/10/09 02:21:46;;;;;;;9.50;7.63;;;;;;;12.71;82.04;95219.16;5072399;28;20932;-78
2022/10/09 02:24:18;;;;;;;17.13;8.27;;;;;;;12.72;81.66;95222.63;5072299;28;20452;-77
2022/10/09 02:26:48;;;;;;;6.63;6.00;;;;;;;12.67;81.80;95214.31;5072695;28;20507;-77
2022/10/09 02:29:15;;;;;;;8.07;7.27;;;;;;;12.71;81.55;95226.22;5072732;28;20440;-77
2022/10/09 02:31:44;;;;;;;10.30;7.23;;;;;;;12.67;81.58;95235.38;5072238;28;20452;-77
2022/10/09 02:34:13;;;;;;;9.50;7.30;;;;;;;12.61;81.15;95225.38;5072169;28;20889;-77
2022/10/09 02:36:40;;;;;;;9.53;6.90;;;;;;;12.58;82.02;95233.56;5072002;28;20880;-77
2022/10/09 02:39:07;;;;;;;7.73;6.57;;;;;;;12.53;82.00;95228.69;5072405;28;20441;-77
2022/10/09 02:41:35;;;;;;;9.07;7.10;;;;;;;12.46;82.35;95229.38;5072154;28;20440;-77
2022/10/09 02:44:02;;;;;;;10.53;7.00;;;;;;;12.40;82.57;95228.06;5072275;28;20937;-77
2022/10/09 02:46:29;;;;;;;7.27;6.57;;;;;;;12.34;82.24;95229.44;5071906;28;20491;-77
2022/10/09 02:48:57;;;;;;;11.23;7.27;;;;;;;12.33;82.10;95233.03;5071979;28;20441;-77
2022/10/09 02:51:24;;;;;;;7.87;6.70;;;;;;;12.30;82.41;95235.13;5080285;28;20466;-77
2022/10/09 02:53:51;;;;;;;12.50;7.10;;;;;;;12.29;82.42;95231.66;5112427;28;20505;-77
2022/10/09 02:56:18;;;;;;;10.17;6.37;;;;;;;12.23;82.10;95229.56;5112726;28;20450;-77
2022/10/09 02:58:45;;;;;;;8.53;6.77;;;;;;;12.17;82.36;95232.72;5112658;28;20439;-77
2022/10/09 03:01:12;;;;;;;8.37;7.10;;;;;;;12.14;83.36;95232.13;5112516;28;20438;-77
2022/10/09 03:03:39;;;;;;;7.17;6.47;;;;;;;12.09;83.53;95229.88;5112290;28;20850;-77
2022/10/09 03:06:10;;;;;;;8.83;7.20;;;;;;;12.02;83.20;95229.56;5114616;28;20454;-77
2022/10/09 03:08:37;;;;;;;8.80;7.50;;;;;;;12.00;83.54;95242.03;5080578;28;20426;-77
2022/10/09 03:11:05;;;;;;;8.37;6.70;;;;;;;11.91;83.65;95231.47;5116734;28;20794;-77
2022/10/09 03:13:32;;;;;;;10.03;6.60;;;;;;;11.94;84.00;95231.19;5116741;28;20485;-77
2022/10/09 03:16:03;;;;;;;7.10;6.40;;;;;;;11.93;84.49;95240.06;5116499;28;20529;-77
2022/10/09 03:18:30;;;;;;;10.00;7.90;;;;;;;11.87;84.27;95235.31;5080230;28;20553;-77
2022/10/09 03:20:57;;;;;;;7.87;6.83;;;;;;;11.79;84.02;95239.41;5116292;28;20453;-77
2022/10/09 03:23:25;;;;;;;7.90;6.60;;;;;;;11.83;84.75;95241.78;5116482;28;20453;-77
2022/10/09 03:25:56;;;;;;;7.80;6.93;;;;;;;11.82;83.77;95242.75;5116300;28;20442;-77
2022/10/09 03:28:23;;;;;;;7.90;7.00;;;;;;;11.78;84.10;95242.16;5116182;28;20443;-77
2022/10/09 03:30:49;;;;;;;6.20;5.60;;;;;;;11.80;84.79;95245.50;5116447;28;20921;-77
2022/10/09 03:33:16;;;;;;;7.33;6.53;;;;;;;11.78;84.23;95242.16;5116099;28;20976;-77
2022/10/09 03:35:45;;;;;;;7.47;6.30;;;;;;;11.73;84.52;95250.41;5116380;28;20450;-77
2022/10/09 03:38:11;;;;;;;7.77;6.17;;;;;;;11.71;84.58;95244.44;5116149;28;20597;-77
2022/10/09 03:40:40;;;;;;;7.70;6.90;;;;;;;11.75;84.97;95248.47;5116157;28;20851;-77
2022/10/09 03:43:07;;;;;;;7.07;6.43;;;;;;;11.71;85.31;95249.72;5079893;28;20437;-76
2022/10/09 03:45:33;;;;;;;7.47;6.67;;;;;;;11.72;84.48;95248.75;5079743;28;20434;-77
2022/10/09 03:48:00;;;;;;;12.10;7.20;;;;;;;11.69;85.43;95256.06;5116190;28;20869;-77
2022/10/09 03:50:27;;;;;;;12.50;8.40;;;;;;;11.35;87.04;95258.84;5115949;28;20456;-77
2022/10/09 03:52:54;;;;;;;8.83;7.87;;;;;;;11.09;88.07;95254.88;5115716;28;20863;-77
2022/10/09 03:55:20;;;;;;;10.63;9.50;;;;;;;10.94;88.72;95262.19;5115655;28;20881;-77
2022/10/09 03:57:49;;;;;;;12.20;8.93;;;;;;;10.94;88.77;95254.31;5115590;28;20444;-77
2022/10/09 04:00:15;;;;;;;10.80;9.70;;;;;;;11.03;88.29;95255.38;5115583;28;20489;-77
2022/10/09 04:02:42;;;;;;;10.90;9.87;;;;;;;11.01;88.75;95265.19;5115978;28;20450;-77
2022/10/09 04:05:09;;;;;;;14.60;10.13;;;;;;;10.87;89.24;95261.00;5063175;28;20449;-76
2022/10/09 04:07:36;;;;;;;15.03;10.10;;;;;;;10.92;89.22;95265.88;5115366;28;20452;-77
2022/10/09 04:10:04;;;;;;;16.30;9.83;;;;;;;10.94;89.19;95258.72;5115401;28;20456;-77
2022/10/09 04:12:31;;;;;;;13.33;11.23;;;;;;;10.98;89.21;95262.75;5115215;28;20561;-77
2022/10/09 04:14:59;;;;;;;12.90;10.90;;;;;;;11.03;88.30;95266.72;5115503;28;20992;-77
2022/10/09 04:17:26;;;;;;;13.13;9.17;;;;;;;11.09;88.81;95266.22;5078299;28;20451;-77
2022/10/09 04:19:53;;;;;;;12.03;9.97;;;;;;;11.14;88.04;95264.03;5115232;28;20452;-77
2022/10/09 04:22:19;;;;;;;12.00;9.73;;;;;;;11.20;88.09;95260.09;5115117;28;20445;-77
2022/10/09 04:24:46;;;;;;;14.63;10.63;;;;;;;11.27;88.16;95263.88;5115296;28;20446;-76
2022/10/09 04:27:13;;;;;;;14.33;10.93;;;;;;;11.33;88.38;95263.41;5114991;28;20448;-77
2022/10/09 04:29:40;;;;;;;17.30;11.17;;;;;;;11.39;87.85;95262.06;5114926;28;20915;-77
2022/10/09 04:32:08;;;;;;;11.70;10.43;;;;;;;11.44;87.24;95270.38;5115063;28;20442;-77
2022/10/09 04:34:34;;;;;;;10.80;9.60;;;;;;;11.46;86.80;95266.66;5062081;28;20491;-77
2022/10/09 04:37:01;;;;;;;21.90;11.70;;;;;;;11.49;86.85;95273.47;5115052;28;20444;-77
2022/10/09 04:39:28;;;;;;;11.70;10.00;;;;;;;11.51;86.76;95276.78;5059825;28;20454;-77
2022/10/09 04:41:55;;;;;;;11.27;9.37;;;;;;;11.53;86.10;95274.03;5061898;28;20935;-77
2022/10/09 04:44:21;;;;;;;11.00;9.90;;;;;;;11.54;85.85;95275.72;5114727;28;20437;-77
2022/10/09 04:46:50;;;;;;;11.53;9.67;;;;;;;11.56;85.30;95279.88;5114825;28;20449;-77
2022/10/09 04:49:18;;;;;;;25.97;10.57;;;;;;;11.56;85.95;95282.50;5114972;28;20507;-77
2022/10/09 04:51:45;;;;;;;14.27;10.10;;;;;;;11.58;85.17;95275.34;5114414;28;20530;-77
2022/10/09 04:54:12;;;;;;;24.07;10.53;;;;;;;11.62;85.63;95274.13;5114668;28;20488;-77
2022/10/09 04:56:39;;;;;;;12.13;8.67;;;;;;;11.66;84.79;95280.81;5114357;28;20937;-77
2022/10/09 04:59:06;;;;;;;14.83;9.50;;;;;;;11.69;84.85;95283.19;5078589;28;20499;-77
2022/10/09 05:01:33;;;;;;;12.33;9.80;;;;;;;11.74;84.86;95283.63;5078287;28;20510;-77
2022/10/09 05:03:59;;;;;;;9.87;8.53;;;;;;;11.70;83.97;95281.38;5114340;28;20925;-77
2022/10/09 05:06:28;;;;;;;11.30;10.10;;;;;;;11.72;84.20;95277.66;5113532;28;20499;-78
2022/10/09 05:08:55;;;;;;;9.60;8.60;;;;;;;11.73;84.89;95281.97;5113882;28;20435;-77
2022/10/09 05:11:23;;;;;;;12.87;8.80;;;;;;;11.82;84.86;95290.06;5078527;28;20441;-77
2022/10/09 05:13:52;;;;;;;8.77;7.87;;;;;;;11.93;84.04;95292.66;5114649;28;20532;-77
2022/10/09 05:16:21;;;;;;;11.67;9.43;;;;;;;12.00;84.21;95296.44;5114500;28;20455;-76
2022/10/09 05:18:50;;;;;;;12.23;9.30;;;;;;;12.04;84.08;95290.78;5114804;28;20438;-77
2022/10/09 05:21:18;;;;;;;12.70;9.17;;;;;;;12.16;83.40;95302.09;5114559;28;20450;-78
2022/10/09 05:23:46;;;;;;;16.67;10.00;;;;;;;12.21;82.90;95301.69;5115229;28;20451;-78
2022/10/09 05:26:15;;;;;;;20.27;11.03;;;;;;;12.36;83.28;95303.84;5115065;28;20499;-78
2022/10/09 05:28:42;;;;;;;16.10;10.90;;;;;;;12.48;82.18;95306.41;5114857;28;20503;-77
2022/10/09 05:31:09;;;;;;;20.03;11.10;;;;;;;12.83;82.64;95303.34;5114495;28;20450;-77
2022/10/09 05:33:36;;;;;;;18.37;11.20;;;;;;;13.33;80.42;95297.13;5114517;28;20482;-78
2022/10/09 05:36:05;;;;;;;16.73;11.77;;;;;;;14.01;78.50;95305.03;5115212;28;20446;-78
2022/10/09 05:38:33;;;;;;;15.60;11.50;;;;;;;14.55;76.57;95308.84;5114440;28;20447;-77
2022/10/09 05:41:03;;;;;;;16.80;11.63;;;;;;;15.20;78.31;95307.03;5061770;28;20491;-78
2022/10/09 05:43:32;;;;;;;12.70;10.97;;;;;;;15.77;71.11;95319.06;5114334;28;20451;-78
2022/10/09 05:46:05;;;;;;;14.83;10.40;;;;;;;16.41;68.20;95319.72;5111202;28;20521;-77
2022/10/09 05:48:32;;;;;;;14.17;10.23;;;;;;;16.98;66.52;95315.63;5110662;28;20444;-78
2022/10/09 05:51:07;;;;;;;14.63;9.80;;;;;;;17.57;64.35;95319.16;5113871;28;20453;-78
2022/10/09 05:53:34;;;;;;;8.90;7.67;;;;;;;17.98;61.73;95316.59;5078021;28;20860;-77
2022/10/09 05:56:11;;;;;;;12.13;7.60;;;;;;;18.35;59.70;95313.44;5099741;28;20446;-77
2022/10/09 05:58:38;;;;;;;8.83;7.33;;;;;;;18.54;58.12;95321.06;5113509;28;20449;-78
2022/10/09 06:01:05;;;;;;;8.03;6.83;;;;;;;18.72;57.83;95322.72;5111003;28;20436;-77
2022/10/09 06:03:32;;;;;;;12.30;6.23;;;;;;;18.83;57.03;95325.03;5094144;28;20794;-78
2022/10/09 06:06:00;;;;;;;7.10;6.40;;;;;;;18.81;56.30;95327.03;5093855;28;21190;-78
2022/10/09 06:08:27;;;;;;;7.30;5.80;;;;;;;18.79;56.83;95327.22;5111099;28;20546;-78
2022/10/09 06:10:54;;;;;;;6.47;5.87;;;;;;;18.77;56.13;95333.69;5113724;28;20458;-78
2022/10/09 06:13:22;;;;;;;6.10;5.50;;;;;;;18.96;56.36;95330.66;5113726;28;20490;-79
2022/10/09 06:15:53;;;;;;;6.47;5.80;;;;;;;19.16;56.23;95331.91;5097515;28;20452;-80
2022/10/09 06:18:19;;;;;;;9.00;6.80;;;;;;;19.25;55.10;95343.34;5111398;28;20462;-79
2022/10/09 06:20:53;;;;;;;7.60;6.90;;;;;;;19.17;55.80;95346.88;5113446;28;20446;-79
2022/10/09 06:23:20;;;;;;;7.70;6.30;;;;;;;19.20;56.31;95343.03;5074432;28;20523;-79
2022/10/09 06:25:52;;;;;;;9.73;7.40;;;;;;;19.37;56.08;95351.78;5110862;28;20777;-78
2022/10/09 06:28:19;;;;;;;10.80;9.73;;;;;;;19.41;56.31;95348.63;5114385;28;20447;-78
2022/10/09 06:30:47;;;;;;;10.60;9.60;;;;;;;19.28;56.73;95348.31;5114291;28;20447;-78
2022/10/09 06:33:17;;;;;;;10.20;9.20;;;;;;;19.31;57.60;95353.31;5074054;28;20484;-79
2022/10/09 06:35:44;;;;;;;16.53;11.10;;;;;;;19.24;57.32;95349.69;5093871;28;20454;-78
2022/10/09 06:38:10;;;;;;;14.90;10.10;;;;;;;19.20;58.06;95353.69;5093260;28;20432;-78
2022/10/09 06:40:38;;;;;;;24.70;9.60;;;;;;;19.14;57.79;95346.41;5041575;28;20444;-78
2022/10/09 06:43:05;;;;;;;17.53;10.83;;;;;;;19.31;58.36;95365.78;5094014;28;20438;-78
2022/10/09 06:45:37;;;;;;;15.30;11.57;;;;;;;19.47;57.79;95358.56;5093288;28;20456;-79
2022/10/09 06:48:08;;;;;;;14.70;10.97;;;;;;;19.63;57.88;95371.00;5093630;28;20483;-78
2022/10/09 06:50:36;;;;;;;11.20;9.17;;;;;;;19.73;57.42;95371.63;5093724;28;20424;-78
2022/10/09 06:53:04;;;;;;;11.03;8.43;;;;;;;19.90;56.73;95374.19;5093742;28;20506;-79
2022/10/09 06:55:31;;;;;;;10.17;9.17;;;;;;;20.01;56.42;95369.31;5093121;28;20443;-79
2022/10/09 06:57:58;;;;;;;12.87;10.10;;;;;;;20.02;56.21;95368.31;5093080;28;20424;-79
2022/10/09 07:00:26;;;;;;;9.77;8.80;;;;;;;20.08;55.90;95369.44;5093080;28;20440;-79
2022/10/09 07:02:52;;;;;;;12.00;10.27;;;;;;;19.72;56.71;95364.66;5093270;28;20446;-79
2022/10/09 07:05:21;;;;;;;17.70;10.23;;;;;;;19.64;57.19;95356.69;5093472;28;20914;-78
2022/10/09 07:07:47;;;;;;;16.43;11.67;;;;;;;19.52;57.45;95366.03;5096225;28;20440;-77
2022/10/09 07:10:14;;;;;;;12.40;10.13;;;;;;;19.53;58.25;95359.75;5113847;28;20447;-78
2022/10/09 07:12:41;;;;;;;10.20;9.20;;;;;;;19.52;58.08;95366.03;5114054;28;20451;-78
2022/10/09 07:15:09;;;;;;;15.50;9.90;;;;;;;19.53;57.83;95362.41;5113836;28;20483;-78
2022/10/09 07:17:36;;;;;;;13.00;10.10;;;;;;;19.34;58.00;95368.09;5077862;28;20439;-78
2022/10/09 07:20:03;;;;;;;10.80;9.43;;;;;;;19.43;58.88;95365.25;5113655;28;20444;-78
2022/10/09 07:22:35;;;;;;;13.00;8.57;;;;;;;19.61;59.61;95359.69;5113671;28;20480;-77
2022/10/09 07:25:02;;;;;;;14.23;8.90;;;;;;;19.73;57.55;95362.81;5113792;28;20773;-78
2022/10/09 07:27:29;;;;;;;9.47;8.50;;;;;;;19.91;56.68;95373.19;5113770;28;20506;-78
2022/10/09 07:29:56;;;;;;;10.17;9.10;;;;;;;20.01;56.28;95371.97;5113499;28;20881;-77
2022/10/09 07:32:22;;;;;;;8.87;8.00;;;;;;;20.20;56.00;95377.81;5110657;28;20434;-79
2022/10/09 07:34:49;;;;;;;9.73;8.27;;;;;;;20.35;55.31;95378.72;5094139;28;20483;-78
2022/10/09 07:37:16;;;;;;;20.77;9.33;;;;;;;20.51;55.78;95383.94;5092998;28;20436;-78
2022/10/09 07:39:47;;;;;;;11.23;10.10;;;;;;;20.58;54.85;95379.59;5092631;28;20443;-77
2022/10/09 07:42:14;;;;;;;9.80;8.80;;;;;;;20.78;54.93;95385.22;5093080;28;20443;-78
2022/10/09 07:44:40;;;;;;;11.67;10.47;;;;;;;20.87;53.64;95378.81;5092760;28;20501;-79
2022/10/09 07:47:07;;;;;;;13.40;9.80;;;;;;;20.81;53.86;95379.53;5092879;28;20448;-77
2022/10/09 07:49:34;;;;;;;14.17;10.90;;;;;;;20.48;54.73;95375.50;5092461;28;20932;-79
2022/10/09 07:52:01;;;;;;;14.47;10.17;;;;;;;20.21;55.91;95377.66;5092964;28;20959;-79
2022/10/09 07:54:27;;;;;;;12.03;10.77;;;;;;;20.05;56.00;95383.09;5096344;28;20962;-79
2022/10/09 07:56:55;;;;;;;12.20;9.53;;;;;;;20.08;56.55;95385.41;5096801;28;20926;-79
2022/10/09 07:59:22;;;;;;;12.37;11.13;;;;;;;20.13;55.86;95377.72;5096276;28;20448;-78
2022/10/09 08:01:49;;;;;;;10.83;9.73;;;;;;;20.29;55.91;95376.78;5060799;28;20934;-79
2022/10/09 08:04:16;;;;;;;14.50;9.73;;;;;;;20.38;55.58;95373.03;5096812;28;20846;-78
2022/10/09 08:06:43;;;;;;;10.30;9.30;;;;;;;20.53;55.51;95373.97;5096068;28;20447;-79
2022/10/09 08:09:10;;;;;;;15.23;11.80;;;;;;;20.20;56.08;95375.16;5096403;28;20447;-79
2022/10/09 08:11:39;;;;;;;15.83;11.40;;;;;;;20.05;56.35;95369.78;5096410;28;20446;-79
2022/10/09 08:14:09;;;;;;;15.90;10.00;;;;;;;20.08;56.81;95369.44;5096103;28;20847;-79
2022/10/09 08:16:36;;;;;;;12.20;10.37;;;;;;;20.24;56.59;95369.31;5095511;28;20455;-77
2022/10/09 08:19:03;;;;;;;18.20;11.57;;;;;;;20.45;57.50;95367.84;5096102;28;20456;-78
2022/10/09 08:21:31;;;;;;;17.30;11.40;;;;;;;20.57;56.90;95371.78;5095447;28;20444;-78
2022/10/09 08:23:59;;;;;;;13.97;11.47;;;;;;;20.73;57.46;95368.94;5095695;28;20448;-78
2022/10/09 08:26:28;;;;;;;14.10;12.17;;;;;;;20.91;56.53;95368.63;5095405;28;20949;-78
2022/10/09 08:28:57;;;;;;;12.77;11.43;;;;;;;20.92;56.24;95365.75;5095720;28;20451;-78
2022/10/09 08:31:26;;;;;;;17.63;11.83;;;;;;;21.02;56.31;95366.31;5095491;28;20447;-78
2022/10/09 08:33:54;;;;;;;19.03;10.80;;;;;;;21.02;57.06;95360.16;5108901;28;20482;-78
2022/10/09 08:36:22;;;;;;;11.47;10.33;;;;;;;21.03;57.31;95367.16;5116253;28;20446;-78
2022/10/09 08:38:49;;;;;;;12.27;9.07;;;;;;;21.21;56.38;95364.97;5115735;28;20442;-78
2022/10/09 08:41:45;;;;;;;11.93;10.63;;;;;;;21.35;56.55;95368.66;5115569;28;20442;-79
2022/10/09 08:44:20;;;;;;;9.83;8.83;;;;;;;21.17;56.16;95358.34;5115933;28;20478;-78
2022/10/09 08:46:59;;;;;;;10.00;8.10;;;;;;;20.93;56.99;95351.41;5115461;28;20832;-78
2022/10/09 08:49:32;;;;;;;11.17;9.50;;;;;;;20.68;57.74;95352.66;5115671;28;20803;-79
2022/10/09 08:52:10;;;;;;;16.00;9.47;;;;;;;20.72;58.60;95353.94;5115333;28;20475;-78
2022/10/09 08:54:39;;;;;;;12.20;8.70;;;;;;;20.81;59.20;95346.69;5115782;28;20494;-78
2022/10/09 08:57:13;;;;;;;10.20;8.47;;;;;;;20.87;58.71;95348.66;5115570;28;20443;-80
2022/10/09 08:59:40;;;;;;;9.70;8.30;;;;;;;20.87;58.15;95340.66;5079305;28;20518;-79
2022/10/09 09:02:27;;;;;;;15.00;9.50;;;;;;;20.71;58.75;95346.97;5115082;28;20443;-79
2022/10/09 09:05:07;;;;;;;8.57;7.67;;;;;;;20.52;59.50;95334.94;5114858;28;20450;-78
2022/10/09 09:07:43;;;;;;;8.47;7.67;;;;;;;20.32;59.72;95331.94;5115383;28;20443;-79
2022/10/09 09:10:19;;;;;;;11.80;8.37;;;;;;;20.28;60.13;95327.97;5115063;28;20569;-79
2022/10/09 09:12:50;;;;;;;11.33;8.90;;;;;;;20.20;61.38;95328.03;5115042;28;20446;-79
2022/10/09 09:15:39;;;;;;;10.87;9.60;;;;;;;20.21;60.60;95329.69;5115036;28;20512;-78
2022/10/09 09:18:24;;;;;;;8.87;7.87;;;;;;;20.24;60.23;95321.34;5032160;28;20458;-79
2022/10/09 09:20:53;;;;;;;10.10;8.27;;;;;;;20.27;59.69;95317.50;5032214;28;20442;-79
2022/10/09 09:23:26;;;;;;;8.33;7.40;;;;;;;20.32;60.02;95317.78;5032532;28;20977;-79
2022/10/09 09:25:53;;;;;;;14.47;8.80;;;;;;;20.46;61.28;95314.34;5032284;28;20529;-78
2022/10/09 09:28:24;;;;;;;10.07;8.53;;;;;;;20.66;59.45;95328.84;5031960;28;20860;-78
2022/10/09 09:30:56;;;;;;;14.47;7.80;;;;;;;20.83;59.08;95328.69;5015992;28;20444;-79
2022/10/09 09:33:35;;;;;;;8.27;7.40;;;;;;;20.90;58.87;95319.75;4996263;28;20464;-78
2022/10/09 09:36:11;;;;;;;11.13;6.93;;;;;;;21.02;58.28;95320.13;4963390;28;20570;-79
2022/10/09 09:38:41;;;;;;;9.00;6.60;;;;;;;21.15;57.86;95319.50;5012270;28;20474;-78
2022/10/09 09:41:08;;;;;;;6.73;6.10;;;;;;;21.24;58.69;95319.25;5012169;28;20431;-79
2022/10/09 09:43:35;;;;;;;8.00;7.20;;;;;;;21.21;57.01;95324.94;5013803;28;20864;-80
2022/10/09 09:46:03;;;;;;;13.30;7.87;;;;;;;21.26;58.55;95324.41;5011760;28;20877;-80
2022/10/09 09:48:36;;;;;;;8.10;6.47;;;;;;;21.26;56.90;95325.22;5012379;28;20467;-79
2022/10/09 09:51:04;;;;;;;8.23;7.13;;;;;;;21.26;57.53;95327.06;5023551;28;20442;-79
2022/10/09 09:53:37;;;;;;;8.03;7.10;;;;;;;21.08;57.85;95322.06;5011657;28;20616;-79
2022/10/09 09:56:04;;;;;;;9.07;6.63;;;;;;;21.07;57.63;95324.91;5047885;28;20480;-78
2022/10/09 09:58:35;;;;;;;7.90;6.70;;;;;;;21.13;57.89;95321.53;5114003;28;20447;-79
2022/10/09 10:01:05;;;;;;;6.83;6.23;;;;;;;21.09;58.09;95329.03;5114303;28;20447;-78
2022/10/09 10:03:34;;;;;;;7.33;6.57;;;;;;;21.03;57.51;95319.94;5113664;28;20519;-77
2022/10/09 10:06:01;;;;;;;7.80;6.67;;;;;;;21.02;57.88;95328.13;5113650;28;20451;-78
2022/10/09 10:08:30;;;;;;;8.57;7.30;;;;;;;20.92;58.82;95325.75;5113915;28;20466;-77
2022/10/09 10:10:59;;;;;;;9.10;6.60;;;;;;;20.89;58.50;95323.44;5112707;28;20449;-77
2022/10/09 10:13:34;;;;;;;7.80;6.60;;;;;;;20.98;58.90;95321.50;5113951;28;20436;-77
2022/10/09 10:16:01;;;;;;;20.03;6.87;;;;;;;20.96;58.57;95321.69;5112315;28;20612;-78
2022/10/09 10:18:36;;;;;;;9.10;6.57;;;;;;;20.87;57.67;95325.47;5110720;28;20436;-77
2022/10/09 10:21:10;;;;;;;7.97;6.17;;;;;;;20.90;58.01;95325.09;5063881;28;20455;-77
2022/10/09 10:23:40;;;;;;;11.80;6.07;;;;;;;20.97;58.98;95322.53;5073922;28;20439;-77
2022/10/09 10:26:13;;;;;;;9.20;6.73;;;;;;;21.06;59.12;95321.41;5113395;28;20446;-78
2022/10/09 10:28:48;;;;;;;6.80;6.10;;;;;;;21.14;58.27;95316.00;5113441;28;20563;-77
2022/10/09 10:31:26;;;;;;;7.30;5.63;;;;;;;21.11;56.94;95323.56;5060362;28;20445;-78
2022/10/09 10:33:57;;;;;;;9.90;7.37;;;;;;;21.12;57.40;95320.69;5112933;28;20867;-77
2022/10/09 10:36:27;;;;;;;6.13;5.17;;;;;;;21.12;57.42;95318.03;5113371;28;20491;-78
2022/10/09 10:39:04;;;;;;;14.00;6.77;;;;;;;21.15;56.64;95320.34;5113323;28;20447;-77
2022/10/09 10:41:36;;;;;;;6.17;5.13;;;;;;;21.15;55.68;95312.31;5113131;28;21017;-78
2022/10/09 10:44:09;;;;;;;6.13;5.67;;;;;;;21.20;55.23;95311.75;5113062;28;20511;-77
2022/10/09 10:46:47;;;;;;;6.43;5.70;;;;;;;21.22;56.58;95307.06;5102957;28;20452;-77
2022/10/09 10:49:19;;;;;;;6.20;5.60;;;;;;;21.30;56.06;95307.00;5110504;28;20830;-78
2022/10/09 10:52:11;;;;;;;5.07;4.60;;;;;;;21.34;53.46;95313.59;5113103;28;20475;-77
2022/10/09 10:54:40;;;;;;;6.10;5.27;;;;;;;21.36;53.27;95294.72;5098375;28;20486;-77
2022/10/09 10:57:20;;;;;;;7.90;5.00;;;;;;;21.36;53.47;95298.22;5112976;28;20447;-78
2022/10/09 10:59:56;;;;;;;8.57;5.20;;;;;;;21.36;54.16;95286.72;5060233;28;20780;-77
2022/10/09 11:03:02;;;;;;;5.73;4.97;;;;;;;21.46;55.83;95282.75;5112697;28;20450;-78
2022/10/09 11:05:39;;;;;;;5.87;4.90;;;;;;;21.54;54.00;95282.66;5102517;28;20451;-77
2022/10/09 11:08:16;;;;;;;7.77;5.87;;;;;;;21.59;52.30;95277.56;5107304;28;20454;-77
2022/10/09 11:10:55;;;;;;;9.23;5.47;;;;;;;21.59;51.72;95274.91;5110303;28;20466;-77
2022/10/09 11:13:26;;;;;;;6.77;6.10;;;;;;;21.68;50.78;95272.09;5110662;28;20443;-77
2022/10/09 11:16:01;;;;;;;7.50;4.80;;;;;;;21.63;50.43;95257.47;5114884;28;20482;-77
2022/10/09 11:18:44;;;;;;;5.00;4.53;;;;;;;21.72;51.90;95260.03;5111021;28;20453;-77
2022/10/09 11:21:26;;;;;;;9.40;5.70;;;;;;;21.78;51.21;95261.94;5098499;28;20456;-77
2022/10/09 11:24:18;;;;;;;10.60;5.40;;;;;;;21.91;51.94;95256.72;5103989;28;20458;-77
2022/10/09 11:26:54;;;;;;;5.20;4.70;;;;;;;21.95;50.99;95258.81;5092710;28;20504;-76
2022/10/09 11:29:27;;;;;;;6.37;5.33;;;;;;;21.89;48.90;95245.41;5096389;28;20451;-77
2022/10/09 11:31:59;;;;;;;6.53;5.30;;;;;;;21.85;50.30;95254.81;5115368;28;20454;-77
2022/10/09 11:34:32;;;;;;;5.93;4.70;;;;;;;21.82;49.10;95249.88;5099374;28;20465;-77
2022/10/09 11:37:00;;;;;;;8.70;4.70;;;;;;;21.87;50.22;95242.91;5103720;28;20968;-78
2022/10/09 11:39:32;;;;;;;9.27;5.60;;;;;;;21.95;50.93;95241.97;5062425;28;20500;-77